• Join FlightAware (Why Join?)
  • Login
  • US Flag 
 
02:34PM EST


 

Airport Tracker/Info


-or-


 

Live Flight TrackerFlight Track Log ✈ N556VP ✈ 26-Apr-2013 ✈ KSAF - KMAF

Flight Track Log - Related Links

Times and Time Zones

All times are in EDT time to prevent confusion due to time zone crossing. See the N556VP flight status page for this flight to view local times or setup timezone preferences in your user account.

Time Position Orientation Groundspeed Altitude Reporting Facility
EDT Latitude Longitude Course Direction KTS MPH feet Rate Location/Type
12:21PM 35.6714 -106.0150 74° East 279 321 10,600  Level Albuquerque Center
12:22PM 35.6142 -105.9478 136° Southeast 286 329 13,400 2,460 Climbing Albuquerque Center
12:23PM 35.5261 -105.8500 138° Southeast 336 387 15,800 2,220 Climbing Albuquerque Center
12:24PM 35.4464 -105.7672 140° Southeast 356 410 18,100 2,220 Climbing Albuquerque Center
12:25PM 35.3714 -105.6844 138° Southeast 363 418 20,500 2,220 Climbing Albuquerque Center
12:26PM 35.2914 -105.5994 139° Southeast 371 427 22,700 2,160 Climbing Albuquerque Center
12:27PM 35.2097 -105.5125 139° Southeast 381 438 25,000 2,040 Climbing Albuquerque Center
12:29PM 35.1281 -105.4267 139° Southeast 384 442 27,000 960 Climbing Albuquerque Center
12:30PM 35.0428 -105.3339 138° Southeast 400 460 27,000  Level Albuquerque Center
12:31PM 34.9311 -105.2164 139° Southeast 440 506 27,000  Level Albuquerque Center
12:32PM 34.8328 -105.1133 139° Southeast 456 525 27,000  Level Albuquerque Center
12:33PM 34.7364 -105.0117 139° Southeast 458 527 27,000  Level Albuquerque Center
12:34PM 34.6386 -104.9089 139° Southeast 460 529 27,000  Level Albuquerque Center
12:35PM 34.5411 -104.8075 139° Southeast 460 529 27,000  Level Albuquerque Center
12:36PM 34.4444 -104.7069 139° Southeast 457 526 27,000  Level Albuquerque Center
12:37PM 34.3336 -104.5903 139° Southeast 451 519 27,000  Level Albuquerque Center
12:38PM 34.2383 -104.4933 140° Southeast 446 513 27,000  Level Albuquerque Center
12:39PM 34.1444 -104.4003 141° Southeast 437 503 27,000  Level Albuquerque Center
12:40PM 34.0506 -104.3022 139° Southeast 441 507 27,000  Level Albuquerque Center
12:41PM 33.9442 -104.1928 140° Southeast 444 511 27,000  Level Albuquerque Center
12:42PM 33.8497 -104.0961 140° Southeast 445 512 27,000  Level Albuquerque Center
12:43PM 33.7569 -104.0006 139° Southeast 440 506 27,000  Level Albuquerque Center
12:44PM 33.6569 -103.8983 140° Southeast 437 503 27,000  Level Albuquerque Center
12:45PM 33.5633 -103.8039 140° Southeast 439 505 27,000  Level Albuquerque Center
12:46PM 33.4650 -103.7017 139° Southeast 436 502 27,000 -60 Level Albuquerque Center
12:47PM 33.3714 -103.6056 139° Southeast 436 502 26,900 -480 Descending Albuquerque Center
12:48PM 33.2769 -103.5111 140° Southeast 445 512 26,100 -900 Descending Albuquerque Center
12:49PM 33.1842 -103.4167 140° Southeast 444 511 25,100 -1,320 Descending Albuquerque Center
12:51PM 33.0383 -103.2786 142° Southeast 440 506 22,700 -1,560 Descending Fort Worth Center
12:51PM 33.0025 -103.2397 138° Southeast 423 487 21,900 -1,800 Descending Albuquerque Center
12:52PM 32.9247 -103.1444 134° Southeast 407 468 20,000 -1,740 Descending Albuquerque Center
12:53PM 32.8844 -103.0853 129° Southeast 407 468 19,300 -1,200 Descending Fort Worth Center
12:54PM 32.8139 -102.9869 130° Southeast 394 453 18,200 -1,020 Descending Fort Worth Center
12:55PM 32.7428 -102.8936 132° Southeast 384 442 17,300 -960 Descending Fort Worth Center
12:56PM 32.6717 -102.7981 131° Southeast 384 442 16,300 -1,020 Descending Fort Worth Center
12:57PM 32.5986 -102.7000 131° Southeast 384 442 15,300 -1,020 Descending Fort Worth Center
12:58PM 32.5253 -102.6119 135° Southeast 384 442 14,300 -900 Descending Fort Worth Center
12:59PM 32.4381 -102.5503 149° Southeast 373 429 13,500 -900 Descending Fort Worth Center
01:00PM 32.3550 -102.4889 148° Southeast 361 415 12,500 -1,080 Descending Fort Worth Center
01:01PM 32.2850 -102.4089 136° Southeast 351 404 11,400 -1,080 Descending Fort Worth Center
01:02PM 32.2217 -102.3244 132° Southeast 345 397 10,400 -1,020 Descending Fort Worth Center
01:03PM 32.1622 -102.2428 131° Southeast 333 383 9,400 -1,140 Descending Fort Worth Center
01:04PM 32.0967 -102.1558 132° Southeast 322 371 8,200 -600 Descending Fort Worth Center
01:05PM 32.0369 -102.0792 133° Southeast 322 371 8,200 -1,020 Level Fort Worth Center
01:06PM 31.9667 -102.0586 166° South 283 326 6,200 -2,160 Descending Fort Worth Center
01:07PM 31.9286 -102.1275 237° Southwest 191 220 3,900 -1,560 Descending Fort Worth Center
01:08PM 31.9347 -102.1842 277° West 159 183 3,100 -420 Descending Fort Worth Center
01:09PM 31.9042 -102.2242 228° Southwest 159 183 3,100 2,400 Level Fort Worth Center
01:10PM 31.8814 -102.2719 241° Southwest 159 183 8,000 2,400 Climbing Fort Worth Center
01:11PM 31.8586 -102.3194 241° Southwest 159 183 8,000  Level Fort Worth Center